createdAt,value
2023-05-18T00:02:22.657Z,46.27
2023-05-18T00:04:51.892Z,46.22
2023-05-18T00:07:25.741Z,46.16
2023-05-18T00:09:56.493Z,46.14
2023-05-18T00:12:30.175Z,46.01
2023-05-18T00:15:01.263Z,46.07
2023-05-18T00:17:33.497Z,45.87
2023-05-18T00:20:05.774Z,45.81
2023-05-18T00:22:34.158Z,46.79
2023-05-18T00:25:02.599Z,46.03
2023-05-18T00:27:32.165Z,45.86
2023-05-18T00:30:01.915Z,45.69
2023-05-18T00:32:31.619Z,45.62
2023-05-18T00:35:01.346Z,45.52
2023-05-18T00:37:31.837Z,45.47
2023-05-18T00:40:00.402Z,45.39
2023-05-18T00:42:29.587Z,45.36
2023-05-18T00:44:58.964Z,45.25
2023-05-18T00:47:28.313Z,45.18
2023-05-18T00:49:58.135Z,45.13
2023-05-18T00:52:30.155Z,45.04
2023-05-18T00:55:01.979Z,45.08
2023-05-18T00:57:31.015Z,45.08
2023-05-18T01:00:00.141Z,45.13
2023-05-18T01:02:31.016Z,44.95
2023-05-18T01:05:01.408Z,44.77
2023-05-18T01:07:33.897Z,44.77
2023-05-18T01:10:02.504Z,44.66
2023-05-18T01:12:37.757Z,44.44
2023-05-18T01:15:16.641Z,44.43
2023-05-18T01:18:01.683Z,44.37
2023-05-18T01:20:38.384Z,45.91
2023-05-18T01:23:45.850Z,45.03
2023-05-18T01:26:17.093Z,44.52
2023-05-18T01:28:47.791Z,44.23
2023-05-18T01:31:16.897Z,44.09
2023-05-18T01:33:50.380Z,43.95
2023-05-18T01:36:21.712Z,43.93
2023-05-18T01:38:51.336Z,43.90
2023-05-18T01:41:30.607Z,43.99
2023-05-18T01:44:04.214Z,43.83
2023-05-18T01:46:42.343Z,43.82
2023-05-18T01:49:28.844Z,43.92
2023-05-18T01:52:05.213Z,43.85
2023-05-18T01:54:42.051Z,43.63
2023-05-18T01:57:11.989Z,43.55
2023-05-18T01:59:44.787Z,43.50
2023-05-18T02:02:16.504Z,43.40
2023-05-18T02:04:47.438Z,43.35
2023-05-18T02:07:18.222Z,43.25
2023-05-18T02:09:47.657Z,43.16
2023-05-18T02:12:19.038Z,43.08
2023-05-18T02:14:50.478Z,43.05
2023-05-18T02:17:20.166Z,43.10
2023-05-18T02:19:50.043Z,42.92
2023-05-18T02:22:19.474Z,42.85
2023-05-18T02:24:48.639Z,42.74
2023-05-18T02:27:23.604Z,42.77
2023-05-18T02:29:52.878Z,42.64
2023-05-18T02:32:22.561Z,42.56
2023-05-18T02:34:56.915Z,42.50
2023-05-18T02:37:27.703Z,42.42
2023-05-18T02:39:58.476Z,42.43
2023-05-18T02:42:28.371Z,42.45
2023-05-18T02:45:02.510Z,42.32
2023-05-18T02:47:34.242Z,42.22
2023-05-18T02:50:04.690Z,42.26
2023-05-18T02:52:38.350Z,42.31
2023-05-18T02:55:08.621Z,42.52
2023-05-18T02:58:05.906Z,42.24
2023-05-18T03:00:56.166Z,42.08
2023-05-18T03:03:26.367Z,41.94
2023-05-18T03:05:56.178Z,41.89
2023-05-18T03:08:27.720Z,41.73
2023-05-18T03:10:56.769Z,41.67
2023-05-18T03:13:26.393Z,41.37
2023-05-18T03:15:59.074Z,41.25
2023-05-18T03:18:30.749Z,41.22
2023-05-18T03:21:03.236Z,41.17
2023-05-18T03:23:32.889Z,41.05
2023-05-18T03:26:04.450Z,40.91
2023-05-18T03:28:34.172Z,40.84
2023-05-18T03:31:03.865Z,40.85
2023-05-18T03:33:34.142Z,40.86
2023-05-18T03:36:06.227Z,40.85
2023-05-18T03:38:35.772Z,40.75
2023-05-18T03:41:10.030Z,40.71
2023-05-18T03:43:38.384Z,40.67
2023-05-18T03:46:08.652Z,40.66
2023-05-18T03:48:38.692Z,40.88
2023-05-18T03:51:07.826Z,40.96
2023-05-18T03:53:36.924Z,40.85
2023-05-18T03:56:08.215Z,40.71
2023-05-18T03:58:36.777Z,40.60
2023-05-18T04:01:07.742Z,41.05
2023-05-18T04:03:37.659Z,40.77
2023-05-18T04:06:07.683Z,40.61
2023-05-18T04:08:37.980Z,40.58
2023-05-18T04:11:07.412Z,40.58
2023-05-18T04:13:39.859Z,40.62
2023-05-18T04:16:12.419Z,40.58
2023-05-18T04:18:46.088Z,40.52
2023-05-18T04:21:16.835Z,40.48
2023-05-18T04:23:48.877Z,40.40
2023-05-18T04:26:20.533Z,40.27
2023-05-18T04:28:50.864Z,40.34
2023-05-18T04:31:20.864Z,40.40
2023-05-18T04:33:52.008Z,40.35
2023-05-18T04:36:21.464Z,40.15
2023-05-18T04:38:52.075Z,39.98
2023-05-18T04:41:23.772Z,40.24
2023-05-18T04:43:56.422Z,39.81
2023-05-18T04:46:26.473Z,39.62
2023-05-18T04:48:58.895Z,39.64
2023-05-18T04:51:28.004Z,39.62
2023-05-18T04:53:58.007Z,39.64
2023-05-18T04:56:27.942Z,39.67
2023-05-18T04:58:59.894Z,39.45
2023-05-18T05:01:31.254Z,39.52
2023-05-18T05:04:04.014Z,39.43
2023-05-18T05:06:35.597Z,39.41
2023-05-18T05:09:04.919Z,39.25
2023-05-18T05:11:34.219Z,39.20
2023-05-18T05:14:04.114Z,39.06
2023-05-18T05:16:35.964Z,38.97
2023-05-18T05:19:04.946Z,38.91
2023-05-18T05:21:35.536Z,38.84
2023-05-18T05:24:06.884Z,38.73
2023-05-18T05:26:37.281Z,38.60
2023-05-18T05:29:12.811Z,38.73
2023-05-18T05:31:43.933Z,38.61
2023-05-18T05:34:15.605Z,38.49
2023-05-18T05:36:46.612Z,38.47
2023-05-18T05:39:17.345Z,38.47
2023-05-18T05:41:47.925Z,38.38
2023-05-18T05:44:18.237Z,38.36
2023-05-18T05:46:48.409Z,38.30
2023-05-18T05:49:18.284Z,38.35
2023-05-18T05:51:48.790Z,38.34
2023-05-18T05:54:18.206Z,38.39
2023-05-18T05:56:47.890Z,38.36
2023-05-18T05:59:17.512Z,38.30
2023-05-18T06:01:50.746Z,38.25
2023-05-18T06:04:20.104Z,38.15
2023-05-18T06:06:50.231Z,38.10
2023-05-18T06:09:19.549Z,38.03
2023-05-18T06:11:48.645Z,38.06
2023-05-18T06:14:18.646Z,37.99
2023-05-18T06:16:49.265Z,37.93
2023-05-18T06:19:21.014Z,37.89
2023-05-18T06:21:50.820Z,37.82
2023-05-18T06:24:20.468Z,37.74
2023-05-18T06:27:17.643Z,37.81
2023-05-18T06:30:00.277Z,37.88
2023-05-18T06:32:53.057Z,37.90
2023-05-18T06:35:22.006Z,37.79
2023-05-18T06:37:50.291Z,37.77
2023-05-18T06:40:19.982Z,37.70
2023-05-18T06:42:51.489Z,37.61
2023-05-18T06:45:28.775Z,37.80
2023-05-18T06:48:13.101Z,37.96
2023-05-18T06:50:45.044Z,37.86
2023-05-18T06:53:16.196Z,37.84
2023-05-18T06:55:45.077Z,37.85
2023-05-18T06:58:15.113Z,37.82
2023-05-18T07:00:47.233Z,37.83
2023-05-18T07:03:18.623Z,37.84
2023-05-18T07:05:48.538Z,37.87
2023-05-18T07:08:18.808Z,37.83
2023-05-18T07:10:48.283Z,37.80
2023-05-18T07:13:19.698Z,37.74
2023-05-18T07:15:49.411Z,37.70
2023-05-18T07:18:19.555Z,37.63
2023-05-18T07:20:48.564Z,37.53
2023-05-18T07:23:18.177Z,37.47
2023-05-18T07:25:48.053Z,37.41
2023-05-18T07:28:20.287Z,37.42
2023-05-18T07:30:50.449Z,37.35
2023-05-18T07:33:19.727Z,37.24
2023-05-18T07:35:48.074Z,37.24
2023-05-18T07:38:18.037Z,37.29
2023-05-18T07:40:48.905Z,37.30
2023-05-18T07:43:18.964Z,37.31
2023-05-18T07:45:48.156Z,37.31
2023-05-18T07:48:18.437Z,37.25
2023-05-18T07:50:47.407Z,37.16
2023-05-18T07:53:17.355Z,37.16
2023-05-18T07:55:49.120Z,37.93
2023-05-18T07:58:19.038Z,37.24
2023-05-18T08:00:48.085Z,37.01
2023-05-18T08:03:18.384Z,36.93
2023-05-18T08:05:48.142Z,36.87
2023-05-18T08:08:17.372Z,36.96
2023-05-18T08:10:48.659Z,36.86
2023-05-18T08:13:18.478Z,36.85
2023-05-18T08:15:56.022Z,36.80
2023-05-18T08:18:32.546Z,36.76
2023-05-18T08:21:10.558Z,36.66
2023-05-18T08:23:40.337Z,36.56
2023-05-18T08:26:11.841Z,36.51
2023-05-18T08:28:46.654Z,37.72
2023-05-18T08:31:17.414Z,36.82
2023-05-18T08:33:47.262Z,36.56
2023-05-18T08:36:19.609Z,36.48
2023-05-18T08:38:48.353Z,36.34
2023-05-18T08:41:46.633Z,36.58
2023-05-18T08:44:23.990Z,36.46
2023-05-18T08:46:56.579Z,36.27
2023-05-18T08:49:28.071Z,36.26
2023-05-18T08:51:59.201Z,36.22
2023-05-18T08:54:32.110Z,36.13
2023-05-18T08:57:03.941Z,36.05
2023-05-18T08:59:38.375Z,36.08
2023-05-18T09:02:08.442Z,36.04
2023-05-18T09:04:39.815Z,36.07
2023-05-18T09:07:11.517Z,36.05
2023-05-18T09:09:42.712Z,36.01
2023-05-18T09:12:12.827Z,35.90
2023-05-18T09:14:44.988Z,35.87
2023-05-18T09:17:15.332Z,35.82
2023-05-18T09:19:47.248Z,35.72
2023-05-18T09:22:17.883Z,35.68
2023-05-18T09:24:48.172Z,35.69
2023-05-18T09:27:18.432Z,35.63
2023-05-18T09:29:55.408Z,35.80
2023-05-18T09:32:25.184Z,35.61
2023-05-18T09:34:56.330Z,35.53
2023-05-18T09:37:24.785Z,35.48
2023-05-18T09:40:05.944Z,35.52
2023-05-18T09:42:38.907Z,35.49
2023-05-18T09:45:20.884Z,35.51
2023-05-18T09:47:53.142Z,35.43
2023-05-18T09:50:24.098Z,35.35
2023-05-18T09:52:52.812Z,35.29
2023-05-18T09:55:26.975Z,35.38
2023-05-18T09:57:57.815Z,35.28
2023-05-18T10:00:28.338Z,35.21
2023-05-18T10:02:58.013Z,35.21
2023-05-18T10:05:35.517Z,35.17
2023-05-18T10:08:04.772Z,35.17
2023-05-18T10:10:38.831Z,35.23
2023-05-18T10:13:08.737Z,35.23
2023-05-18T10:15:38.757Z,35.04
2023-05-18T10:18:09.732Z,34.97
2023-05-18T10:20:38.387Z,34.94
2023-05-18T10:23:10.659Z,34.98
2023-05-18T10:25:40.351Z,35.00
2023-05-18T10:28:11.985Z,35.05
2023-05-18T10:30:45.034Z,35.07
2023-05-18T10:33:28.468Z,35.98
2023-05-18T10:35:59.887Z,35.39
2023-05-18T10:38:30.349Z,35.17
2023-05-18T10:41:06.675Z,35.16
2023-05-18T10:43:37.159Z,35.11
2023-05-18T10:46:09.001Z,35.43
2023-05-18T10:48:41.586Z,35.28
2023-05-18T10:51:10.840Z,35.26
2023-05-18T10:53:44.761Z,35.25
2023-05-18T10:56:18.420Z,35.41
2023-05-18T10:58:48.282Z,36.13
2023-05-18T11:01:18.379Z,36.52
2023-05-18T11:03:51.860Z,35.84
2023-05-18T11:06:25.199Z,35.89
2023-05-18T11:08:54.243Z,35.85
2023-05-18T11:11:31.083Z,35.86
2023-05-18T11:14:03.881Z,35.83
2023-05-18T11:16:38.622Z,35.86
2023-05-18T11:19:12.988Z,35.88
2023-05-18T11:21:43.890Z,35.95
2023-05-18T11:24:31.227Z,36.10
2023-05-18T11:27:07.866Z,36.22
2023-05-18T11:29:57.820Z,36.19
2023-05-18T11:32:38.543Z,36.30
2023-05-18T11:35:11.948Z,36.22
2023-05-18T11:37:40.614Z,36.30
2023-05-18T11:40:34.088Z,36.34
2023-05-18T11:43:02.752Z,36.37
2023-05-18T11:45:34.496Z,36.33
2023-05-18T11:48:04.711Z,36.43
2023-05-18T11:50:33.245Z,36.48
2023-05-18T11:53:02.358Z,36.58
2023-05-18T11:55:42.297Z,36.75
2023-05-18T11:58:11.649Z,36.73
2023-05-18T12:00:41.246Z,36.82
2023-05-18T12:03:11.895Z,36.86
2023-05-18T12:05:51.967Z,36.96
2023-05-18T12:08:22.508Z,37.01
2023-05-18T12:10:51.802Z,36.91
2023-05-18T12:13:22.337Z,36.85
2023-05-18T12:15:54.012Z,37.01
2023-05-18T12:18:22.644Z,37.08
2023-05-18T12:20:51.890Z,37.30
2023-05-18T12:23:20.306Z,37.43
2023-05-18T12:25:49.351Z,37.66
2023-05-18T12:28:18.719Z,37.44
2023-05-18T12:30:48.281Z,37.37
2023-05-18T12:33:18.728Z,37.57
2023-05-18T12:35:48.107Z,37.59
2023-05-18T12:38:18.924Z,37.72
2023-05-18T12:40:49.510Z,38.32
2023-05-18T12:43:18.735Z,38.36
2023-05-18T12:45:49.138Z,37.98
2023-05-18T12:48:18.568Z,39.04
2023-05-18T12:50:49.352Z,38.75
2023-05-18T12:53:19.578Z,38.59
2023-05-18T12:55:58.865Z,38.72
2023-05-18T12:58:28.062Z,38.53
2023-05-18T13:00:56.454Z,38.46
2023-05-18T13:03:24.929Z,38.63
2023-05-18T13:06:08.203Z,38.94
2023-05-18T13:08:38.740Z,38.94
2023-05-18T13:11:14.358Z,39.00
2023-05-18T13:14:07.865Z,39.21
2023-05-18T13:16:47.851Z,38.99
2023-05-18T13:19:20.874Z,39.39
2023-05-18T13:21:58.073Z,39.19
2023-05-18T13:24:26.598Z,39.14
2023-05-18T13:26:56.110Z,39.25
2023-05-18T13:29:24.955Z,40.42
2023-05-18T13:31:53.642Z,39.59
2023-05-18T13:34:24.705Z,39.50
2023-05-18T13:36:54.202Z,39.51
2023-05-18T13:39:25.280Z,39.67
2023-05-18T13:41:56.053Z,39.71
2023-05-18T13:44:24.905Z,39.74
2023-05-18T13:46:53.137Z,39.91
2023-05-18T13:49:22.752Z,40.01
2023-05-18T13:51:50.890Z,40.10
2023-05-18T13:54:20.391Z,40.22
2023-05-18T13:56:53.204Z,40.17
2023-05-18T13:59:30.772Z,40.17
2023-05-18T14:02:00.401Z,40.21
2023-05-18T14:04:29.226Z,40.24
2023-05-18T14:06:59.484Z,40.28
2023-05-18T14:09:29.128Z,40.37
2023-05-18T14:12:00.474Z,40.58
2023-05-18T14:14:28.621Z,40.49
2023-05-18T14:16:58.429Z,40.64
2023-05-18T14:19:26.740Z,40.71
2023-05-18T14:21:56.435Z,40.60
2023-05-18T14:24:24.856Z,40.52
2023-05-18T14:26:54.324Z,40.62
2023-05-18T14:29:22.613Z,40.83
2023-05-18T14:31:51.078Z,40.89
2023-05-18T14:34:20.346Z,40.82
2023-05-18T14:36:49.182Z,40.88
2023-05-18T14:39:21.313Z,41.04
2023-05-18T14:41:50.834Z,41.04
2023-05-18T14:44:20.892Z,41.16
2023-05-18T14:46:49.139Z,41.22
2023-05-18T14:52:27.619Z,41.70
2023-05-18T14:54:56.444Z,41.85
2023-05-18T14:57:26.623Z,42.03
2023-05-18T14:59:59.458Z,41.72
2023-05-18T15:02:28.306Z,41.75
2023-05-18T15:05:00.590Z,41.83
2023-05-18T15:07:28.791Z,41.79
2023-05-18T15:10:00.501Z,41.73
2023-05-18T15:12:29.491Z,41.68
2023-05-18T15:14:59.507Z,41.73
2023-05-18T15:17:28.167Z,41.85
2023-05-18T15:19:56.798Z,41.91
2023-05-18T15:22:25.034Z,41.98
2023-05-18T15:24:54.073Z,42.10
2023-05-18T15:27:22.658Z,42.10
2023-05-18T15:29:52.441Z,42.01
2023-05-18T15:32:22.417Z,42.09
2023-05-18T15:34:50.711Z,42.10
2023-05-18T15:37:20.134Z,42.22
2023-05-18T15:39:48.786Z,42.29
2023-05-18T15:42:19.092Z,42.86
2023-05-18T15:44:48.018Z,42.79
2023-05-18T15:47:18.716Z,42.67
2023-05-18T15:49:52.056Z,42.68
2023-05-18T15:52:21.186Z,42.88
2023-05-18T15:54:50.209Z,42.99
2023-05-18T15:57:18.807Z,43.05
2023-05-18T15:59:47.251Z,43.13
2023-05-18T16:02:17.821Z,43.18
2023-05-18T16:04:48.822Z,43.32
2023-05-18T16:07:18.717Z,43.45
2023-05-18T16:09:48.570Z,44.52
2023-05-18T16:12:18.497Z,44.74
2023-05-18T16:14:47.995Z,44.80
2023-05-18T16:17:21.207Z,45.04
2023-05-18T16:19:50.486Z,45.05
2023-05-18T16:22:18.885Z,45.22
2023-05-18T16:24:47.589Z,45.23
2023-05-18T16:27:43.746Z,44.76
2023-05-18T16:30:21.085Z,44.54
2023-05-18T16:32:50.179Z,44.88
2023-05-18T16:35:18.900Z,44.85
2023-05-18T16:37:47.581Z,45.29
2023-05-18T16:40:16.883Z,44.62
2023-05-18T16:42:47.904Z,44.55
2023-05-18T16:45:17.979Z,44.61
2023-05-18T16:47:48.330Z,44.62
2023-05-18T16:50:17.653Z,44.65
2023-05-18T16:52:48.048Z,44.88
2023-05-18T16:55:17.715Z,45.00
2023-05-18T16:57:47.161Z,44.88
2023-05-18T17:00:20.481Z,45.42
2023-05-18T17:02:49.214Z,45.35
2023-05-18T17:05:22.416Z,45.32
2023-05-18T17:07:53.338Z,45.60
2023-05-18T17:10:23.823Z,45.38
2023-05-18T17:12:52.445Z,45.41
2023-05-18T17:15:21.040Z,45.37
2023-05-18T17:17:50.705Z,46.59
2023-05-18T17:20:19.447Z,45.72
2023-05-18T17:22:48.333Z,45.66
2023-05-18T17:25:18.094Z,45.46
2023-05-18T17:27:49.674Z,45.35
2023-05-18T17:30:18.531Z,45.43
2023-05-18T17:32:50.936Z,45.41
2023-05-18T17:35:19.935Z,45.28
2023-05-18T17:37:49.314Z,45.23
2023-05-18T17:40:19.369Z,45.21
2023-05-18T17:43:11.923Z,45.40
2023-05-18T17:45:57.196Z,45.49
2023-05-18T17:48:28.835Z,45.32
2023-05-18T17:50:56.967Z,45.32
2023-05-18T17:53:25.939Z,45.26
2023-05-18T17:55:54.793Z,45.26
2023-05-18T17:58:22.858Z,45.24
2023-05-18T18:00:51.283Z,45.12
2023-05-18T18:03:21.032Z,45.01
2023-05-18T18:05:50.447Z,45.06
2023-05-18T18:08:22.752Z,44.94
2023-05-18T18:10:53.301Z,45.01
2023-05-18T18:13:22.508Z,45.09
2023-05-18T18:15:50.819Z,45.12
2023-05-18T18:18:19.992Z,45.02
2023-05-18T18:20:49.709Z,44.97
2023-05-18T18:23:20.867Z,44.98
2023-05-18T18:25:50.563Z,45.03
2023-05-18T18:28:19.668Z,45.06
2023-05-18T18:30:48.659Z,45.09
2023-05-18T18:33:18.361Z,45.00
2023-05-18T18:35:47.324Z,45.04
2023-05-18T18:38:16.832Z,45.06
2023-05-18T18:40:48.128Z,45.12
2023-05-18T18:43:17.282Z,45.27
2023-05-18T18:45:47.129Z,45.37
2023-05-18T18:48:22.459Z,45.34
2023-05-18T18:50:53.733Z,45.37
2023-05-18T18:53:23.751Z,45.34
2023-05-18T18:55:53.195Z,45.41
2023-05-18T18:58:24.921Z,45.28
2023-05-18T19:00:55.955Z,45.33
2023-05-18T19:03:26.807Z,45.25
2023-05-18T19:05:55.236Z,45.28
2023-05-18T19:08:24.625Z,45.30
2023-05-18T19:10:52.772Z,45.27
2023-05-18T19:13:21.028Z,45.12
2023-05-18T19:15:51.557Z,45.06
2023-05-18T19:18:21.010Z,45.11
2023-05-18T19:20:49.755Z,45.10
2023-05-18T19:23:19.953Z,45.13
2023-05-18T19:25:48.568Z,45.14
2023-05-18T19:28:17.397Z,45.16
2023-05-18T19:30:48.146Z,45.23
2023-05-18T19:33:20.413Z,45.29
2023-05-18T19:35:50.315Z,45.34
2023-05-18T19:38:19.015Z,45.36
2023-05-18T19:40:47.512Z,45.38
2023-05-18T19:43:17.870Z,45.40
2023-05-18T19:45:48.458Z,45.34
2023-05-18T19:48:18.628Z,45.35
2023-05-18T19:50:47.471Z,45.34
2023-05-18T19:53:17.232Z,45.38
2023-05-18T19:55:48.946Z,45.50
2023-05-18T19:58:21.114Z,45.56
2023-05-18T20:00:50.505Z,45.42
2023-05-18T20:03:20.504Z,45.28
2023-05-18T20:05:50.357Z,45.24
2023-05-18T20:08:18.818Z,45.29
2023-05-18T20:10:48.165Z,45.22
2023-05-18T20:13:18.622Z,45.22
2023-05-18T20:15:48.085Z,45.21
2023-05-18T20:18:17.995Z,45.37
2023-05-18T20:20:46.695Z,45.49
2023-05-18T20:23:15.880Z,45.58
2023-05-18T20:25:49.656Z,45.59
2023-05-18T20:28:19.748Z,45.55
2023-05-18T20:30:48.434Z,45.50
2023-05-18T20:33:18.427Z,45.69
2023-05-18T20:35:46.869Z,45.72
2023-05-18T20:38:17.203Z,45.59
2023-05-18T20:40:47.766Z,45.59
2023-05-18T20:43:52.763Z,45.89
2023-05-18T20:46:25.298Z,45.88
2023-05-18T20:48:57.710Z,47.41
2023-05-18T20:51:28.610Z,46.13
2023-05-18T20:53:57.198Z,45.79
2023-05-18T20:56:27.791Z,45.65
2023-05-18T20:58:57.649Z,45.62
2023-05-18T21:01:29.321Z,45.63
2023-05-18T21:04:00.336Z,45.67
2023-05-18T21:06:29.231Z,45.66
2023-05-18T21:08:58.380Z,45.68
2023-05-18T21:11:27.587Z,45.75
2023-05-18T21:13:56.522Z,45.80
2023-05-18T21:16:24.995Z,45.76
2023-05-18T21:18:55.900Z,45.66
2023-05-18T21:21:24.864Z,45.70
2023-05-18T21:23:53.576Z,45.73
2023-05-18T21:26:22.911Z,45.46
2023-05-18T21:28:51.873Z,45.42
2023-05-18T21:31:21.582Z,45.40
2023-05-18T21:33:54.238Z,45.50
2023-05-18T21:36:36.300Z,45.56
2023-05-18T21:39:09.119Z,45.61
2023-05-18T21:41:40.842Z,45.60
2023-05-18T21:44:10.661Z,45.62
2023-05-18T21:46:39.828Z,45.65
2023-05-18T21:49:10.335Z,45.63
2023-05-18T21:51:39.773Z,45.58
2023-05-18T21:54:09.002Z,45.50
2023-05-18T21:56:39.732Z,45.53
2023-05-18T21:59:08.947Z,45.46
2023-05-18T22:01:40.011Z,45.55
2023-05-18T22:04:10.415Z,45.59
2023-05-18T22:06:39.534Z,45.52
2023-05-18T22:09:08.492Z,45.67
2023-05-18T22:11:41.253Z,45.86
2023-05-18T22:14:10.634Z,45.87
2023-05-18T22:16:43.389Z,45.82
2023-05-18T22:19:12.970Z,45.79
2023-05-18T22:21:42.870Z,45.82
2023-05-18T22:24:11.136Z,45.66
2023-05-18T22:26:39.783Z,45.62
2023-05-18T22:29:08.549Z,45.61
2023-05-18T22:31:37.567Z,45.57
2023-05-18T22:34:07.969Z,45.64
2023-05-18T22:36:37.915Z,45.61
2023-05-18T22:39:09.621Z,45.66
2023-05-18T22:41:38.846Z,45.68
2023-05-18T22:44:07.644Z,45.62
2023-05-18T22:48:02.289Z,46.10
2023-05-18T22:50:39.955Z,45.97
2023-05-18T22:53:12.286Z,45.71
2023-05-18T22:55:40.996Z,45.63
2023-05-18T22:58:10.363Z,45.56
2023-05-18T23:00:38.918Z,45.45
2023-05-18T23:03:21.371Z,45.69
2023-05-18T23:05:55.436Z,45.56
2023-05-18T23:08:26.760Z,45.59
2023-05-18T23:13:48.436Z,45.77
2023-05-18T23:16:18.916Z,45.78
2023-05-18T23:18:49.335Z,45.81
2023-05-18T23:21:18.465Z,45.79
2023-05-18T23:23:48.283Z,45.82
2023-05-18T23:26:18.610Z,45.80
2023-05-18T23:28:46.945Z,45.67
2023-05-18T23:31:17.815Z,45.65
2023-05-18T23:33:47.697Z,45.75
2023-05-18T23:36:21.170Z,45.82
2023-05-18T23:38:52.399Z,45.78
2023-05-18T23:41:22.522Z,45.76
2023-05-18T23:43:51.660Z,45.68
2023-05-18T23:46:24.337Z,45.76
2023-05-18T23:48:58.648Z,45.79
2023-05-18T23:51:32.464Z,45.74
2023-05-18T23:54:08.686Z,45.70
2023-05-18T23:56:39.032Z,45.64
2023-05-18T23:59:09.082Z,45.38
